createdAt,value
2017-05-31T00:01:38.704Z,5.52
2017-05-31T00:04:07.680Z,4.14
2017-05-31T00:06:36.679Z,5.70
2017-05-31T00:09:05.708Z,5.62
2017-05-31T00:11:34.636Z,4.02
2017-05-31T00:14:03.595Z,4.18
2017-05-31T00:16:31.808Z,4.90
2017-05-31T00:19:01.712Z,5.14
2017-05-31T00:21:30.703Z,3.82
2017-05-31T00:23:59.637Z,4.18
2017-05-31T00:26:28.567Z,4.90
2017-05-31T00:28:57.541Z,5.58
2017-05-31T00:31:26.737Z,3.44
2017-05-31T00:33:55.665Z,5.32
2017-05-31T00:36:25.625Z,4.02
2017-05-31T00:38:54.561Z,4.10
2017-05-31T00:41:23.502Z,3.70
2017-05-31T00:43:52.856Z,2.74
2017-05-31T00:46:21.800Z,3.08
2017-05-31T00:48:50.741Z,4.08
2017-05-31T00:51:19.721Z,7.72
2017-05-31T00:53:48.653Z,3.26
2017-05-31T00:56:17.578Z,2.58
2017-05-31T00:58:46.566Z,3.36
2017-05-31T01:01:15.492Z,1.94
2017-05-31T01:03:44.422Z,3.10
2017-05-31T01:06:13.407Z,1.90
2017-05-31T01:08:42.337Z,1.84
2017-05-31T01:11:11.266Z,2.32
2017-05-31T01:13:40.244Z,5.18
2017-05-31T01:16:09.173Z,2.60
2017-05-31T01:18:38.106Z,2.84
2017-05-31T01:21:07.081Z,1.84
2017-05-31T01:23:36.015Z,2.16
2017-05-31T01:26:04.963Z,2.10
2017-05-31T01:28:33.964Z,5.10
2017-05-31T01:31:02.901Z,2.42
2017-05-31T01:33:31.871Z,2.92
2017-05-31T01:36:00.846Z,2.00
2017-05-31T01:38:29.765Z,2.14
2017-05-31T01:40:58.740Z,2.00
2017-05-31T01:43:26.903Z,1.88
2017-05-31T01:45:55.833Z,3.04
2017-05-31T01:48:24.059Z,2.74
2017-05-31T01:50:52.990Z,2.90
2017-05-31T01:53:21.924Z,2.26
2017-05-31T01:55:50.911Z,2.74
2017-05-31T01:58:19.840Z,1.74
2017-05-31T02:00:48.768Z,3.06
2017-05-31T02:03:17.757Z,3.08
2017-05-31T02:05:46.680Z,3.20
2017-05-31T02:08:15.608Z,3.14
2017-05-31T02:10:44.609Z,3.68
2017-05-31T02:13:13.537Z,2.60
2017-05-31T02:15:42.476Z,5.38
2017-05-31T02:18:11.449Z,2.60
2017-05-31T02:20:40.427Z,3.46
2017-05-31T02:23:09.353Z,3.14
2017-05-31T02:25:38.278Z,3.68
2017-05-31T02:28:07.267Z,3.36
2017-05-31T02:30:36.198Z,2.82
2017-05-31T02:33:05.130Z,3.14
2017-05-31T02:35:34.153Z,4.30
2017-05-31T02:38:03.089Z,3.30
2017-05-31T02:40:32.053Z,3.44
2017-05-31T02:43:01.367Z,3.72
2017-05-31T02:45:30.304Z,4.26
2017-05-31T02:47:59.276Z,4.64
2017-05-31T02:50:28.247Z,3.76
2017-05-31T02:52:57.181Z,3.58
2017-05-31T02:55:26.127Z,8.44
2017-05-31T02:57:55.108Z,5.80
2017-05-31T03:00:24.044Z,4.24
2017-05-31T03:02:52.968Z,11.56
2017-05-31T03:05:21.957Z,13.08
2017-05-31T03:07:50.894Z,9.14
2017-05-31T03:10:19.816Z,7.62
2017-05-31T03:12:48.789Z,6.32
2017-05-31T03:15:17.724Z,10.40
2017-05-31T03:17:46.666Z,5.52
2017-05-31T03:20:15.636Z,6.46
2017-05-31T03:22:44.618Z,7.08
2017-05-31T03:25:13.544Z,6.50
2017-05-31T03:27:42.477Z,5.20
2017-05-31T03:30:11.454Z,10.40
2017-05-31T03:32:40.431Z,5.48
2017-05-31T03:35:09.356Z,4.22
2017-05-31T03:37:38.284Z,7.38
2017-05-31T03:40:07.260Z,4.86
2017-05-31T03:42:36.192Z,5.60
2017-05-31T03:45:04.352Z,6.46
2017-05-31T03:47:33.333Z,9.28
2017-05-31T03:50:02.301Z,8.62
2017-05-31T03:52:31.264Z,9.30
2017-05-31T03:55:00.275Z,7.62
2017-05-31T03:57:29.267Z,8.40
2017-05-31T03:59:58.199Z,7.04
2017-05-31T04:02:27.124Z,9.26
2017-05-31T04:04:56.108Z,6.86
2017-05-31T04:07:25.036Z,8.90
2017-05-31T04:09:53.989Z,6.42
2017-05-31T04:12:22.973Z,6.50
2017-05-31T04:14:51.901Z,7.24
2017-05-31T04:17:20.832Z,8.16
2017-05-31T04:19:49.833Z,8.80
2017-05-31T04:22:18.768Z,7.90
2017-05-31T04:24:47.695Z,7.90
2017-05-31T04:27:17.505Z,7.22
2017-05-31T04:29:46.438Z,9.30
2017-05-31T04:32:15.373Z,6.66
2017-05-31T04:34:44.357Z,7.36
2017-05-31T04:37:13.399Z,6.92
2017-05-31T04:39:42.404Z,9.22
2017-05-31T04:42:11.382Z,6.94
2017-05-31T04:44:40.316Z,10.02
2017-05-31T04:47:09.312Z,11.64
2017-05-31T04:49:38.275Z,8.32
2017-05-31T04:52:07.207Z,9.22
2017-05-31T04:54:36.183Z,6.96
2017-05-31T04:57:05.119Z,6.38
2017-05-31T04:59:34.057Z,7.68
2017-05-31T05:02:03.036Z,10.68
2017-05-31T05:04:32.012Z,9.84
2017-05-31T05:07:00.940Z,6.46
2017-05-31T05:09:29.929Z,7.92
2017-05-31T05:11:58.860Z,6.26
2017-05-31T05:14:27.783Z,6.36
2017-05-31T05:16:56.743Z,7.22
2017-05-31T05:19:25.716Z,12.66
2017-05-31T05:21:54.699Z,7.58
2017-05-31T05:24:22.870Z,6.36
2017-05-31T05:26:51.889Z,6.52
2017-05-31T05:29:20.826Z,5.30
2017-05-31T05:31:49.765Z,6.94
2017-05-31T05:34:17.986Z,10.50
2017-05-31T05:36:46.916Z,5.14
2017-05-31T05:39:15.859Z,7.46
2017-05-31T05:41:44.831Z,7.06
2017-05-31T05:44:13.760Z,5.32
2017-05-31T05:46:42.730Z,7.30
2017-05-31T05:49:11.664Z,6.54
2017-05-31T05:51:40.597Z,5.82
2017-05-31T05:54:09.577Z,4.88
2017-05-31T05:56:38.508Z,6.70
2017-05-31T05:59:07.435Z,6.82
2017-05-31T06:01:36.399Z,6.46
2017-05-31T06:04:05.368Z,7.98
2017-05-31T06:06:34.369Z,7.42
2017-05-31T06:09:03.295Z,6.26
2017-05-31T06:11:32.281Z,5.74
2017-05-31T06:14:01.280Z,6.32
2017-05-31T06:16:30.209Z,5.90
2017-05-31T06:18:59.137Z,7.04
2017-05-31T06:21:28.120Z,6.20
2017-05-31T06:23:57.082Z,5.80
2017-05-31T06:26:26.018Z,6.86
2017-05-31T06:28:55.045Z,5.96
2017-05-31T06:31:24.005Z,4.90
2017-05-31T06:33:52.934Z,6.18
2017-05-31T06:36:21.924Z,7.42
2017-05-31T06:38:50.861Z,8.90
2017-05-31T06:41:19.796Z,5.82
2017-05-31T06:43:49.150Z,5.46
2017-05-31T06:46:18.161Z,6.84
2017-05-31T06:48:47.147Z,6.32
2017-05-31T06:51:16.075Z,9.68
2017-05-31T06:53:45.007Z,6.08
2017-05-31T06:56:13.992Z,7.56
2017-05-31T06:58:43.865Z,6.66
2017-05-31T07:01:12.833Z,4.28
2017-05-31T07:03:41.806Z,4.84
2017-05-31T07:06:10.765Z,5.46
2017-05-31T07:08:39.732Z,4.98
2017-05-31T07:11:08.651Z,8.12
2017-05-31T07:13:37.624Z,4.02
2017-05-31T07:16:06.567Z,4.06
2017-05-31T07:18:34.728Z,5.40
2017-05-31T07:21:03.732Z,5.76
2017-05-31T07:25:32.395Z,9.28
2017-05-31T07:28:01.403Z,7.94
2017-05-31T07:30:30.353Z,8.80
2017-05-31T07:32:59.379Z,8.98
2017-05-31T07:35:28.372Z,8.70
2017-05-31T07:37:57.369Z,10.02
2017-05-31T07:40:26.356Z,7.68
2017-05-31T07:42:55.317Z,8.72
2017-05-31T07:45:24.240Z,8.94
2017-05-31T07:47:53.232Z,9.66
2017-05-31T07:50:22.156Z,10.30
2017-05-31T07:52:51.081Z,6.78
2017-05-31T07:55:20.108Z,9.02
2017-05-31T07:57:49.031Z,9.30
2017-05-31T08:00:17.957Z,13.18
2017-05-31T08:02:46.931Z,7.84
2017-05-31T08:05:15.877Z,9.94
2017-05-31T08:07:44.874Z,11.20
2017-05-31T08:10:13.969Z,9.28
2017-05-31T08:12:42.912Z,10.34
2017-05-31T08:15:11.852Z,8.74
2017-05-31T08:17:40.845Z,7.12
2017-05-31T08:20:09.828Z,9.82
2017-05-31T08:22:38.792Z,8.46
2017-05-31T08:25:07.767Z,9.40
2017-05-31T08:27:36.693Z,11.86
2017-05-31T08:30:05.615Z,14.92
2017-05-31T08:32:34.900Z,7.44
2017-05-31T08:35:03.892Z,9.40
2017-05-31T08:37:32.821Z,12.02
2017-05-31T08:40:01.785Z,9.00
2017-05-31T08:42:30.760Z,7.58
2017-05-31T08:44:59.679Z,8.86
2017-05-31T08:47:28.656Z,6.00
2017-05-31T08:49:57.623Z,7.00
2017-05-31T08:52:26.640Z,6.28
2017-05-31T08:54:55.641Z,5.20
2017-05-31T08:57:24.608Z,4.50
2017-05-31T08:59:53.619Z,4.92
2017-05-31T09:02:22.616Z,5.88
2017-05-31T09:04:51.596Z,6.70
2017-05-31T09:07:20.521Z,4.42
2017-05-31T09:09:49.488Z,5.46
2017-05-31T09:12:18.448Z,3.86
2017-05-31T09:14:47.416Z,3.68
2017-05-31T09:17:16.409Z,7.50
2017-05-31T09:19:45.360Z,4.38
2017-05-31T09:22:14.285Z,2.70
2017-05-31T09:24:43.257Z,3.54
2017-05-31T09:27:12.236Z,2.70
2017-05-31T09:29:41.228Z,4.44
2017-05-31T09:32:10.216Z,3.90
2017-05-31T09:34:39.140Z,5.60
2017-05-31T09:37:08.103Z,10.44
2017-05-31T09:39:37.101Z,6.16
2017-05-31T09:42:06.154Z,4.34
2017-05-31T09:44:35.072Z,4.42
2017-05-31T09:47:04.044Z,4.40
2017-05-31T09:49:32.968Z,3.38
2017-05-31T09:52:02.064Z,3.70
2017-05-31T09:54:31.061Z,3.20
2017-05-31T09:57:00.005Z,4.62
2017-05-31T09:59:28.963Z,6.54
2017-05-31T10:01:57.911Z,2.64
2017-05-31T10:04:26.868Z,3.80
2017-05-31T10:06:55.788Z,4.28
2017-05-31T10:09:24.763Z,4.28
2017-05-31T10:11:53.786Z,2.40
2017-05-31T10:14:22.775Z,3.02
2017-05-31T10:16:51.757Z,6.00
2017-05-31T10:19:21.342Z,2.36
2017-05-31T10:21:50.308Z,3.00
2017-05-31T10:24:19.237Z,5.10
2017-05-31T10:26:48.253Z,2.72
2017-05-31T10:29:17.216Z,2.58
2017-05-31T10:31:46.144Z,3.24
2017-05-31T10:34:15.162Z,3.92
2017-05-31T10:36:44.085Z,1.62
2017-05-31T10:39:13.009Z,4.56
2017-05-31T10:41:42.005Z,5.80
2017-05-31T10:44:11.001Z,2.32
2017-05-31T10:46:39.960Z,2.26
2017-05-31T10:49:14.848Z,2.82
2017-05-31T10:51:43.896Z,2.06
2017-05-31T10:54:12.898Z,3.04
2017-05-31T10:56:41.831Z,5.56
2017-05-31T10:59:10.812Z,5.16
2017-05-31T11:01:39.748Z,2.72
2017-05-31T11:04:08.669Z,3.32
2017-05-31T11:06:37.640Z,3.48
2017-05-31T11:09:06.568Z,1.94
2017-05-31T11:11:35.498Z,2.44
2017-05-31T11:14:04.541Z,3.92
2017-05-31T11:16:33.468Z,14.04
2017-05-31T11:19:02.398Z,3.42
2017-05-31T11:21:31.369Z,2.88
2017-05-31T11:24:00.292Z,4.72
2017-05-31T11:26:29.392Z,3.34
2017-05-31T11:28:58.360Z,3.80
2017-05-31T11:31:27.295Z,2.98
2017-05-31T11:33:56.296Z,2.42
2017-05-31T11:36:25.345Z,7.74
2017-05-31T11:38:54.317Z,3.46
2017-05-31T11:41:23.324Z,2.38
2017-05-31T11:43:52.248Z,2.22
2017-05-31T11:46:21.312Z,2.54
2017-05-31T11:48:50.309Z,4.78
2017-05-31T11:51:19.301Z,2.20
2017-05-31T11:53:48.227Z,2.54
2017-05-31T11:56:17.193Z,4.56
2017-05-31T11:58:46.164Z,2.56
2017-05-31T12:01:15.089Z,3.16
2017-05-31T12:03:44.164Z,4.94
2017-05-31T12:06:13.160Z,4.32
2017-05-31T12:08:42.114Z,6.58
2017-05-31T12:11:11.105Z,4.30
2017-05-31T12:13:40.133Z,2.94
2017-05-31T12:16:09.060Z,2.62
2017-05-31T12:18:38.024Z,3.62
2017-05-31T12:21:07.013Z,4.40
2017-05-31T12:23:36.009Z,3.32
2017-05-31T12:26:04.941Z,4.92
2017-05-31T12:28:33.865Z,4.78
2017-05-31T12:31:02.828Z,2.96
2017-05-31T12:33:31.858Z,6.74
2017-05-31T12:36:00.863Z,2.76
2017-05-31T12:38:29.918Z,3.50
2017-05-31T12:40:58.855Z,2.84
2017-05-31T12:43:27.821Z,1.86
2017-05-31T12:45:56.753Z,2.00
2017-05-31T12:48:25.781Z,2.78
2017-05-31T12:50:54.776Z,1.90
2017-05-31T12:53:23.708Z,2.14
2017-05-31T12:55:52.672Z,1.78
2017-05-31T12:58:21.754Z,2.38
2017-05-31T13:00:50.729Z,2.34
2017-05-31T13:03:19.728Z,3.52
2017-05-31T13:05:48.655Z,1.82
2017-05-31T13:08:17.728Z,2.74
2017-05-31T13:10:46.692Z,3.52
2017-05-31T13:13:15.652Z,2.30
2017-05-31T13:15:44.576Z,4.20
2017-05-31T13:18:13.604Z,9.24
2017-05-31T13:20:42.597Z,2.52
2017-05-31T13:23:11.586Z,2.18
2017-05-31T13:25:40.577Z,2.94
2017-05-31T13:28:09.504Z,5.04
2017-05-31T13:30:38.428Z,2.08
2017-05-31T13:33:07.459Z,1.76
2017-05-31T13:35:36.462Z,2.50
2017-05-31T13:38:05.723Z,2.30
2017-05-31T13:40:34.683Z,4.60
2017-05-31T13:43:03.612Z,3.54
2017-05-31T13:45:32.536Z,1.58
2017-05-31T13:48:01.516Z,4.38
2017-05-31T13:50:30.441Z,3.58
2017-05-31T13:52:59.365Z,5.66
2017-05-31T13:55:28.328Z,2.28
2017-05-31T13:57:57.302Z,8.66
2017-05-31T14:00:26.291Z,1.36
2017-05-31T14:02:55.213Z,1.56
2017-05-31T14:05:24.188Z,2.72
2017-05-31T14:07:53.181Z,4.12
2017-05-31T14:10:22.166Z,1.84
2017-05-31T14:12:51.157Z,4.96
2017-05-31T14:15:20.080Z,2.30
2017-05-31T14:17:49.080Z,1.92
2017-05-31T14:20:18.057Z,2.28
2017-05-31T14:22:47.059Z,1.74
2017-05-31T14:25:15.980Z,2.18
2017-05-31T14:27:45.001Z,1.00
2017-05-31T14:30:13.988Z,1.70
2017-05-31T14:32:42.981Z,1.68
2017-05-31T14:35:11.906Z,4.70
2017-05-31T14:37:40.864Z,7.06
2017-05-31T14:40:09.825Z,2.74
2017-05-31T14:42:38.748Z,3.16
2017-05-31T14:45:07.736Z,2.70
2017-05-31T14:47:36.700Z,3.02
2017-05-31T14:50:06.296Z,0.60
2017-05-31T14:52:35.337Z,5.74
2017-05-31T14:55:04.264Z,1.60
2017-05-31T14:57:33.189Z,1.50
2017-05-31T15:00:02.158Z,0.88
2017-05-31T15:02:31.093Z,0.80
2017-05-31T15:05:00.052Z,3.16
2017-05-31T15:07:28.972Z,1.74
2017-05-31T15:09:57.969Z,4.10
2017-05-31T15:12:26.968Z,6.38
2017-05-31T15:14:55.960Z,0.96
2017-05-31T15:17:25.045Z,1.14
2017-05-31T15:19:53.973Z,1.76
2017-05-31T15:22:22.951Z,4.10
2017-05-31T15:24:52.000Z,1.84
2017-05-31T15:27:27.582Z,1.62
2017-05-31T15:29:56.508Z,2.72
2017-05-31T15:35:01.093Z,0.80
2017-05-31T15:37:30.062Z,1.86
2017-05-31T15:39:59.085Z,5.16
2017-05-31T15:42:28.064Z,0.74
2017-05-31T15:44:56.987Z,0.86
2017-05-31T15:47:25.907Z,3.90
2017-05-31T15:49:54.877Z,0.76
2017-05-31T15:52:23.840Z,2.56
2017-05-31T15:54:52.805Z,0.60
2017-05-31T15:57:21.764Z,0.62
2017-05-31T15:59:50.737Z,3.64
2017-05-31T16:02:19.661Z,0.70
2017-05-31T16:04:48.624Z,2.36
2017-05-31T16:07:17.616Z,6.26
2017-05-31T16:09:46.536Z,1.74
2017-05-31T16:12:15.460Z,0.98
2017-05-31T16:14:44.493Z,1.58
2017-05-31T16:17:13.478Z,2.12
2017-05-31T16:19:42.396Z,1.10
2017-05-31T16:22:11.325Z,4.06
2017-05-31T16:24:40.305Z,1.42
2017-05-31T16:27:09.252Z,2.12
2017-05-31T16:29:38.246Z,0.66
2017-05-31T16:32:07.257Z,1.18
2017-05-31T16:34:36.232Z,2.26
2017-05-31T16:37:05.168Z,0.64
2017-05-31T16:39:34.315Z,3.98
2017-05-31T16:42:03.236Z,0.66
2017-05-31T16:44:32.208Z,1.88
2017-05-31T16:47:01.176Z,0.92
2017-05-31T16:49:30.116Z,0.94
2017-05-31T16:51:59.045Z,0.60
2017-05-31T16:54:28.105Z,1.36
2017-05-31T16:56:57.032Z,1.10
2017-05-31T16:59:26.008Z,0.66
2017-05-31T17:01:54.984Z,1.02
2017-05-31T17:04:23.913Z,1.70
2017-05-31T17:06:52.872Z,1.74
2017-05-31T17:09:21.848Z,0.86
2017-05-31T17:11:50.781Z,0.66
2017-05-31T17:14:19.744Z,0.82
2017-05-31T17:16:48.720Z,1.28
2017-05-31T17:19:17.640Z,2.40
2017-05-31T17:21:46.560Z,1.38
2017-05-31T17:24:15.531Z,1.14
2017-05-31T17:26:44.501Z,1.58
2017-05-31T17:29:13.428Z,2.40
2017-05-31T17:31:42.403Z,1.04
2017-05-31T17:34:11.360Z,0.90
2017-05-31T17:36:40.279Z,0.84
2017-05-31T17:39:09.256Z,1.84
2017-05-31T17:41:38.250Z,0.56
2017-05-31T17:44:07.353Z,6.60
2017-05-31T17:46:36.341Z,2.18
2017-05-31T17:49:05.328Z,1.50
2017-05-31T17:51:34.288Z,2.54
2017-05-31T17:54:03.300Z,0.66
2017-05-31T17:56:32.310Z,0.74
2017-05-31T17:59:01.273Z,1.76
2017-05-31T18:01:30.285Z,0.68
2017-05-31T18:03:59.208Z,0.50
2017-05-31T18:06:28.133Z,1.00
2017-05-31T18:09:00.356Z,4.08
2017-05-31T18:11:29.277Z,2.92
2017-05-31T18:13:58.287Z,1.04
2017-05-31T18:16:27.216Z,0.66
2017-05-31T18:18:56.256Z,1.48
2017-05-31T18:21:25.364Z,2.12
2017-05-31T18:23:54.337Z,0.94
2017-05-31T18:26:23.338Z,4.26
2017-05-31T18:28:52.341Z,2.10
2017-05-31T18:31:21.265Z,2.16
2017-05-31T18:33:50.197Z,0.80
2017-05-31T18:36:19.156Z,3.70
2017-05-31T18:38:48.137Z,6.98
2017-05-31T18:41:17.066Z,1.18
2017-05-31T18:43:46.060Z,0.70
2017-05-31T18:46:15.040Z,1.34
2017-05-31T18:48:44.043Z,0.86
2017-05-31T18:51:13.035Z,4.16
2017-05-31T18:53:42.096Z,3.50
2017-05-31T18:56:11.129Z,0.60
2017-05-31T18:58:40.116Z,3.84
2017-05-31T19:01:09.050Z,2.52
2017-05-31T19:03:37.972Z,1.50
2017-05-31T19:06:06.951Z,1.64
2017-05-31T19:08:35.884Z,5.48
2017-05-31T19:11:04.881Z,2.14
2017-05-31T19:13:33.869Z,3.20
2017-05-31T19:16:02.793Z,2.70
2017-05-31T19:18:31.772Z,3.28
2017-05-31T19:21:00.756Z,1.06
2017-05-31T19:23:29.685Z,1.64
2017-05-31T19:25:58.660Z,0.92
2017-05-31T19:28:27.645Z,1.76
2017-05-31T19:30:56.568Z,3.86
2017-05-31T19:33:25.552Z,4.56
2017-05-31T19:35:54.479Z,2.28
2017-05-31T19:38:23.397Z,3.68
2017-05-31T19:40:52.371Z,1.50
2017-05-31T19:43:21.295Z,1.16
2017-05-31T19:45:50.265Z,3.08
2017-05-31T19:48:19.268Z,1.12
2017-05-31T19:50:48.204Z,1.30
2017-05-31T19:53:17.160Z,3.86
2017-05-31T19:55:46.138Z,0.66
2017-05-31T19:58:15.152Z,8.16
2017-05-31T20:00:44.137Z,5.02
2017-05-31T20:03:13.059Z,4.10
2017-05-31T20:05:42.044Z,4.24
2017-05-31T20:08:11.017Z,0.96
2017-05-31T20:10:40.016Z,3.72
2017-05-31T20:13:08.992Z,4.86
2017-05-31T20:15:37.992Z,3.50
2017-05-31T20:18:06.993Z,1.44
2017-05-31T20:20:35.956Z,6.46
2017-05-31T20:23:04.932Z,5.62
2017-05-31T20:25:33.931Z,3.92
2017-05-31T20:28:02.868Z,4.10
2017-05-31T20:30:31.853Z,1.54
2017-05-31T20:33:00.807Z,5.76
2017-05-31T20:35:29.725Z,1.98
2017-05-31T20:37:58.696Z,2.02
2017-05-31T20:40:27.664Z,4.14
2017-05-31T20:42:56.588Z,4.60
2017-05-31T20:45:25.556Z,2.70
2017-05-31T20:47:54.485Z,6.34
2017-05-31T20:50:23.409Z,6.90
2017-05-31T20:52:52.386Z,2.46
2017-05-31T20:55:21.359Z,1.76
2017-05-31T20:57:50.313Z,2.68
2017-05-31T21:00:19.275Z,3.26
2017-05-31T21:02:48.208Z,3.90
2017-05-31T21:05:17.196Z,2.82
2017-05-31T21:07:46.177Z,2.02
2017-05-31T21:10:15.101Z,5.16
2017-05-31T21:12:44.060Z,2.66
2017-05-31T21:15:12.983Z,6.74
2017-05-31T21:17:41.952Z,2.60
2017-05-31T21:20:10.936Z,3.56
2017-05-31T21:22:39.905Z,5.86
2017-05-31T21:25:08.880Z,4.62
2017-05-31T21:27:37.817Z,3.38
2017-05-31T21:30:06.825Z,2.92
2017-05-31T21:32:35.787Z,1.46
2017-05-31T21:35:04.712Z,3.84
2017-05-31T21:37:33.685Z,1.22
2017-05-31T21:40:02.653Z,3.44
2017-05-31T21:42:31.624Z,5.12
2017-05-31T21:45:00.733Z,2.70
2017-05-31T21:47:29.676Z,3.92
2017-05-31T21:49:58.635Z,4.26
2017-05-31T21:52:27.559Z,3.12
2017-05-31T21:54:56.520Z,5.78
2017-05-31T21:57:25.441Z,2.24
2017-05-31T21:59:54.399Z,3.78
2017-05-31T22:02:23.429Z,6.14
2017-05-31T22:04:52.520Z,7.44
2017-05-31T22:07:21.440Z,5.04
2017-05-31T22:09:50.365Z,6.34
2017-05-31T22:12:19.433Z,2.60
2017-05-31T22:14:48.428Z,4.06
2017-05-31T22:17:17.387Z,9.20
2017-05-31T22:19:46.468Z,2.74
2017-05-31T22:22:15.397Z,2.56
2017-05-31T22:24:44.323Z,2.30
2017-05-31T22:27:13.280Z,3.56
2017-05-31T22:29:42.245Z,5.62
2017-05-31T22:32:11.168Z,3.38
2017-05-31T22:34:40.141Z,4.18
2017-05-31T22:37:09.113Z,4.96
2017-05-31T22:39:38.161Z,4.38
2017-05-31T22:42:07.092Z,3.32
2017-05-31T22:44:36.040Z,3.54
2017-05-31T22:47:05.004Z,4.46
2017-05-31T22:49:33.937Z,8.34
2017-05-31T22:52:02.898Z,3.12
2017-05-31T22:54:31.873Z,5.56
2017-05-31T22:57:00.848Z,4.58
2017-05-31T22:59:29.792Z,3.92
2017-05-31T23:01:58.788Z,4.06
2017-05-31T23:04:27.768Z,9.92
2017-05-31T23:06:56.772Z,3.64
2017-05-31T23:09:25.703Z,2.04
2017-05-31T23:11:54.668Z,3.92
2017-05-31T23:14:23.587Z,3.26
2017-05-31T23:16:52.556Z,5.14
2017-05-31T23:19:21.481Z,2.72
2017-05-31T23:21:50.456Z,6.66
2017-05-31T23:24:19.421Z,5.04
2017-05-31T23:26:48.349Z,8.80
2017-05-31T23:29:20.453Z,6.38
2017-05-31T23:31:49.384Z,8.54
2017-05-31T23:34:18.310Z,3.64
2017-05-31T23:36:47.276Z,3.64
2017-05-31T23:39:16.201Z,5.16
2017-05-31T23:41:45.216Z,7.60
2017-05-31T23:44:14.190Z,4.30
2017-05-31T23:46:43.200Z,6.36
2017-05-31T23:49:12.199Z,12.94
2017-05-31T23:51:41.194Z,6.06
2017-05-31T23:54:10.125Z,2.80
2017-05-31T23:56:39.047Z,3.16
2017-05-31T23:59:08.016Z,1.78
